Time;durP1;ratioP1;P1;durP2;ratioP2;P2;SDS_P1;SDS_P2;PMS_P1;PMS_P2;Temp;Humidity;BMP_temperature;BMP_pressure;BME280_temperature;BME280_humidity;BME280_pressure;Samples;Min_cycle;Max_cycle;Signal;HPM_P1;HPM_P2
2022/01/24 00:01:14;;;;;;;23.55;14.53;;;1.30;99.90;;;;;;1884782;76;21047;-90
2022/01/24 00:04:08;;;;;;;22.05;15.30;;;1.30;99.90;;;;;;1899813;75;21117;-87
2022/01/24 00:07:01;;;;;;;23.73;15.05;;;1.30;99.90;;;;;;1895523;75;21075;-89
2022/01/24 00:09:57;;;;;;;24.20;14.73;;;1.30;99.90;;;;;;1912254;75;21113;-88
2022/01/24 00:12:57;;;;;;;24.95;16.23;;;1.20;99.90;;;;;;1906635;75;21120;-88
2022/01/24 00:28:25;;;;;;;22.30;14.03;;;1.20;99.90;;;;;;1894704;74;21169;-88
2022/01/24 00:33:58;;;;;;;22.62;14.85;;;1.10;99.90;;;;;;1940961;72;22327;-88
2022/01/24 00:36:50;;;;;;;27.20;16.42;;;1.10;99.90;;;;;;1871759;76;21059;-88
2022/01/24 00:39:42;;;;;;;23.10;15.78;;;1.10;99.90;;;;;;1881655;75;21059;-87
2022/01/24 00:42:45;;;;;;;23.77;15.75;;;1.00;99.90;;;;;;1869644;76;21055;-87
2022/01/24 00:45:34;;;;;;;22.42;15.03;;;1.10;99.90;;;;;;1890329;74;21110;-88
2022/01/24 00:48:33;;;;;;;23.90;15.53;;;1.00;99.90;;;;;;1891409;75;21495;-87
2022/01/24 00:54:47;;;;;;;22.30;15.28;;;0.90;99.90;;;;;;1879935;75;21168;-89
2022/01/24 01:00:18;;;;;;;24.65;16.35;;;1.10;99.90;;;;;;1931692;72;22275;-88
2022/01/24 01:03:17;;;;;;;26.40;15.65;;;1.00;99.90;;;;;;1898794;75;21151;-88
2022/01/24 01:06:10;;;;;;;24.30;15.48;;;0.90;99.90;;;;;;1890402;75;21210;-87
2022/01/24 01:18:30;;;;;;;25.92;15.85;;;0.80;99.90;;;;;;1902359;75;21148;-87
2022/01/24 01:21:22;;;;;;;21.85;14.25;;;0.80;99.90;;;;;;1888195;75;21128;-89
2022/01/24 01:26:57;;;;;;;22.73;14.18;;;0.70;99.90;;;;;;1932557;72;22686;-88
2022/01/24 01:29:55;;;;;;;22.77;15.05;;;0.70;99.90;;;;;;1853829;76;21078;-87
2022/01/24 01:32:55;;;;;;;24.52;15.23;;;0.70;99.90;;;;;;1823707;78;21170;-87
2022/01/24 01:35:54;;;;;;;24.20;14.77;;;0.70;99.90;;;;;;1889099;75;21096;-88
2022/01/24 01:39:16;;;;;;;24.95;15.75;;;0.60;99.90;;;;;;1912020;75;21070;-87
2022/01/24 01:56:40;;;;;;;20.50;14.53;;;0.50;99.90;;;;;;1902728;74;21536;-87
2022/01/24 01:59:31;;;;;;;24.18;15.65;;;0.50;99.90;;;;;;1905228;74;21151;-88
2022/01/24 02:02:23;;;;;;;22.82;14.95;;;0.50;99.90;;;;;;1922800;74;21154;-87
2022/01/24 02:05:15;;;;;;;22.00;14.73;;;0.50;99.90;;;;;;1923081;74;21117;-88
2022/01/24 02:08:07;;;;;;;21.48;14.25;;;0.50;99.90;;;;;;1923745;74;21063;-89
2022/01/24 02:10:59;;;;;;;20.52;14.23;;;0.50;99.90;;;;;;1909457;74;21095;-89
2022/01/24 02:13:51;;;;;;;21.37;14.10;;;0.50;99.90;;;;;;1929926;74;21084;-88
2022/01/24 02:16:47;;;;;;;22.13;14.80;;;0.60;99.90;;;;;;1926028;72;21100;-87
2022/01/24 02:19:50;;;;;;;22.40;15.40;;;0.70;99.90;;;;;;1919396;74;21095;-88
2022/01/24 02:22:42;;;;;;;24.82;15.78;;;0.80;99.90;;;;;;1929935;74;21164;-88
2022/01/24 02:25:33;;;;;;;22.35;14.55;;;0.90;99.90;;;;;;1912410;74;21121;-87
2022/01/24 02:28:26;;;;;;;22.50;14.85;;;0.70;99.90;;;;;;1918039;74;21047;-87
2022/01/24 02:31:36;;;;;;;23.02;15.18;;;0.70;99.90;;;;;;1914733;74;21168;-87
2022/01/24 02:37:17;;;;;;;21.50;15.10;;;0.60;99.90;;;;;;1950421;72;22174;-89
2022/01/24 02:48:23;;;;;;;23.00;14.75;;;0.60;99.90;;;;;;1896903;73;21123;-87
2022/01/24 02:49:14;;;;;;;19.85;13.80;;;0.60;99.90;;;;;;1875045;75;21149;-89
2022/01/24 02:54:49;;;;;;;20.40;13.18;;;0.60;99.90;;;;;;1945687;72;22314;-87
2022/01/24 02:57:40;;;;;;;20.50;13.45;;;0.70;99.90;;;;;;1885076;75;21067;-89
2022/01/24 03:00:35;;;;;;;19.60;12.95;;;0.60;99.90;;;;;;1883250;75;21047;-89
2022/01/24 03:03:26;;;;;;;23.60;13.62;;;0.60;99.90;;;;;;1892681;75;21092;-87
2022/01/24 03:06:18;;;;;;;21.85;13.53;;;0.50;99.90;;;;;;1872979;75;21111;-88
2022/01/24 03:09:11;;;;;;;22.25;14.33;;;0.50;99.90;;;;;;1873573;75;21118;-87
2022/01/24 03:12:07;;;;;;;22.73;13.85;;;0.40;99.90;;;;;;1892913;75;21118;-88
2022/01/24 03:17:49;;;;;;;18.57;12.63;;;0.30;99.90;;;;;;1943075;72;22228;-89
2022/01/24 03:20:42;;;;;;;22.37;14.50;;;0.40;99.90;;;;;;1920750;73;21051;-87
2022/01/24 03:23:33;;;;;;;21.93;14.63;;;0.50;99.90;;;;;;1930590;73;21125;-87
2022/01/24 03:26:25;;;;;;;20.65;13.22;;;0.40;99.90;;;;;;1917365;73;21161;-88
2022/01/24 03:29:17;;;;;;;21.57;14.43;;;0.40;99.90;;;;;;1931727;73;21063;-88
2022/01/24 03:32:09;;;;;;;23.05;14.75;;;0.30;99.90;;;;;;1917938;73;21054;-87
2022/01/24 03:35:00;;;;;;;20.48;13.88;;;0.20;99.90;;;;;;1917544;75;21580;-87
2022/01/24 03:37:52;;;;;;;21.33;13.93;;;0.10;99.90;;;;;;1929379;73;21116;-88
2022/01/24 03:40:44;;;;;;;21.57;13.98;;;0.10;99.90;;;;;;1917641;75;21054;-87
2022/01/24 03:43:36;;;;;;;20.45;14.50;;;0.10;99.90;;;;;;1918530;73;21056;-88
2022/01/24 03:46:28;;;;;;;26.42;14.95;;;0.10;99.90;;;;;;1923171;73;21208;-87
2022/01/24 03:52:30;;;;;;;24.45;15.30;;;0.10;99.90;;;;;;1917550;75;21051;-87
2022/01/24 03:55:21;;;;;;;23.62;15.30;;;0.20;99.90;;;;;;1917823;73;21094;-87
2022/01/24 03:58:13;;;;;;;22.40;14.98;;;0.20;99.90;;;;;;1917690;73;21090;-87
2022/01/24 04:01:07;;;;;;;22.30;14.55;;;0.20;99.90;;;;;;1917523;75;21126;-87
2022/01/24 04:06:40;;;;;;;20.60;14.47;;;0.10;99.90;;;;;;1934177;72;22296;-87
2022/01/24 04:09:33;;;;;;;22.87;15.32;;;0.10;99.90;;;;;;1903451;75;21137;-87
2022/01/24 04:12:26;;;;;;;21.40;14.65;;;0.00;99.90;;;;;;1904896;75;21110;-87
2022/01/24 04:15:44;;;;;;;21.25;14.68;;;0.10;99.90;;;;;;1894409;73;21183;-87
2022/01/24 04:18:36;;;;;;;25.12;17.95;;;0.10;99.90;;;;;;1895420;75;21063;-87
2022/01/24 04:21:28;;;;;;;30.92;23.67;;;0.10;99.90;;;;;;1888792;75;21175;-87
2022/01/24 04:24:22;;;;;;;33.42;25.92;;;0.10;99.90;;;;;;1897290;75;21145;-87
2022/01/24 04:29:55;;;;;;;31.42;21.90;;;0.00;99.90;;;;;;1951935;72;22260;-88
2022/01/24 04:32:47;;;;;;;28.42;19.12;;;0.00;99.90;;;;;;1836748;77;21114;-87
2022/01/24 04:35:38;;;;;;;22.42;16.23;;;0.10;99.90;;;;;;1878661;75;21125;-87
2022/01/24 04:38:30;;;;;;;22.98;15.83;;;0.00;99.90;;;;;;1891875;75;21055;-87
2022/01/24 04:41:25;;;;;;;21.00;14.65;;;-0.10;99.90;;;;;;1879319;75;21093;-88
2022/01/24 04:44:32;;;;;;;24.55;15.50;;;-0.10;99.90;;;;;;1906074;73;21181;-88
2022/01/24 04:53:05;;;;;;;21.57;15.18;;;0.10;99.90;;;;;;1879587;75;21092;-87
2022/01/24 04:55:52;;;;;;;24.05;15.00;;;0.10;99.90;;;;;;1878128;75;21099;-88
2022/01/24 04:58:44;;;;;;;21.85;13.80;;;0.00;99.90;;;;;;1885111;75;21165;-88
2022/01/24 05:01:35;;;;;;;21.82;14.70;;;0.00;99.90;;;;;;1879819;75;21135;-87
2022/01/24 05:07:07;;;;;;;23.18;15.10;;;-0.20;99.90;;;;;;1944384;72;22668;-88
2022/01/24 05:10:05;;;;;;;21.10;14.40;;;-0.30;99.90;;;;;;1911355;75;21205;-87
2022/01/24 05:28:05;;;;;;;25.02;15.65;;;-0.20;99.90;;;;;;1956817;72;22637;-87
2022/01/24 05:30:59;;;;;;;23.55;14.78;;;-0.30;99.90;;;;;;1884332;75;21110;-87
2022/01/24 05:33:50;;;;;;;22.50;15.13;;;-0.20;99.90;;;;;;1870392;76;21532;-87
2022/01/24 05:39:23;;;;;;;22.42;15.15;;;-0.30;99.90;;;;;;1946508;72;22201;-88
2022/01/24 05:42:17;;;;;;;22.40;15.03;;;-0.20;99.90;;;;;;1884763;76;21079;-88
2022/01/24 05:45:11;;;;;;;23.52;14.28;;;-0.20;99.90;;;;;;1913467;73;21042;-88
2022/01/24 05:48:03;;;;;;;18.87;14.20;;;-0.20;99.90;;;;;;1888656;75;21086;-88
2022/01/24 05:50:54;;;;;;;23.50;15.10;;;-0.20;99.90;;;;;;1896645;73;21094;-87
2022/01/24 05:53:48;;;;;;;21.30;14.33;;;-0.20;99.90;;;;;;1889595;75;21067;-87
2022/01/24 05:56:42;;;;;;;23.07;13.95;;;-0.20;99.90;;;;;;1910017;75;21117;-87
2022/01/24 05:59:34;;;;;;;20.75;14.07;;;-0.20;99.90;;;;;;1900009;75;21123;-87
2022/01/24 06:02:27;;;;;;;25.50;15.88;;;-0.20;99.90;;;;;;1902410;75;21163;-88
2022/01/24 06:05:18;;;;;;;20.23;14.18;;;-0.20;99.90;;;;;;1884596;75;21051;-88
2022/01/24 06:08:10;;;;;;;23.45;14.25;;;-0.20;99.90;;;;;;1887323;75;21172;-88
2022/01/24 06:11:02;;;;;;;23.85;13.78;;;-0.20;99.90;;;;;;1894068;75;21538;-88
2022/01/24 06:13:57;;;;;;;23.98;14.13;;;-0.30;99.90;;;;;;1897179;75;21106;-87
2022/01/24 06:19:35;;;;;;;25.62;18.82;;;-0.30;99.90;;;;;;1907932;72;27897;-88
2022/01/24 06:22:27;;;;;;;25.32;15.58;;;-0.20;99.90;;;;;;1883981;74;21103;-88
2022/01/24 06:25:22;;;;;;;20.62;14.55;;;-0.20;99.90;;;;;;1911355;75;21080;-90
2022/01/24 06:28:12;;;;;;;23.15;14.40;;;-0.30;99.90;;;;;;1912272;74;21065;-89
2022/01/24 06:31:04;;;;;;;20.48;13.78;;;-0.30;99.90;;;;;;1921292;74;21144;-88
2022/01/24 06:36:42;;;;;;;26.05;19.30;;;-0.40;99.90;;;;;;1938777;72;28099;-88
2022/01/24 06:39:33;;;;;;;25.52;16.50;;;-0.20;99.90;;;;;;1915445;74;21067;-89
2022/01/24 06:45:09;;;;;;;20.35;14.18;;;-0.20;99.90;;;;;;1945862;72;22134;-88
2022/01/24 06:48:00;;;;;;;22.87;14.75;;;-0.30;99.90;;;;;;1894550;75;21156;-88
2022/01/24 06:50:54;;;;;;;20.55;14.50;;;-0.30;99.90;;;;;;1870780;75;21079;-87
2022/01/24 06:53:46;;;;;;;20.12;14.50;;;-0.30;99.90;;;;;;1873215;76;21175;-90
2022/01/24 06:56:39;;;;;;;22.27;14.93;;;-0.30;99.90;;;;;;1878080;75;21120;-87
2022/01/24 06:59:42;;;;;;;22.10;13.98;;;-0.50;99.90;;;;;;1872764;75;21164;-78
2022/01/24 07:02:36;;;;;;;26.60;14.38;;;-0.40;99.90;;;;;;1857045;77;21131;-77
2022/01/24 07:05:33;;;;;;;20.57;14.55;;;-0.40;99.90;;;;;;1873321;76;21624;-79
2022/01/24 07:08:25;;;;;;;27.07;14.13;;;-0.50;99.90;;;;;;1868221;75;21077;-77
2022/01/24 07:11:17;;;;;;;22.10;14.58;;;-0.40;99.90;;;;;;1839676;76;21116;-77
2022/01/24 07:14:12;;;;;;;23.18;14.73;;;-0.40;99.90;;;;;;1828277;77;21188;-78
2022/01/24 07:17:16;;;;;;;20.60;13.95;;;-0.40;99.90;;;;;;1840107;77;21120;-77
2022/01/24 07:20:05;;;;;;;23.05;14.00;;;-0.40;99.90;;;;;;1809834;79;21083;-79
2022/01/24 07:22:58;;;;;;;20.75;13.98;;;-0.40;99.90;;;;;;1794369;78;21118;-78
2022/01/24 07:25:50;;;;;;;20.97;14.10;;;-0.30;99.90;;;;;;1822681;79;21195;-79
2022/01/24 07:28:44;;;;;;;26.02;15.25;;;-0.30;99.90;;;;;;1819232;78;21276;-78
2022/01/24 07:34:16;;;;;;;21.48;14.18;;;-0.10;99.90;;;;;;1931123;72;22261;-79
2022/01/24 07:37:07;;;;;;;22.70;14.50;;;-0.10;99.90;;;;;;1896196;74;21235;-78
2022/01/24 07:39:59;;;;;;;25.02;16.25;;;-0.10;99.90;;;;;;1888969;75;21120;-78
2022/01/24 07:42:55;;;;;;;24.47;14.73;;;-0.10;99.90;;;;;;1899970;75;21047;-78
2022/01/24 07:48:28;;;;;;;21.07;13.75;;;0.00;99.90;;;;;;1962442;72;22632;-82
2022/01/24 07:51:20;;;;;;;21.65;14.45;;;0.00;99.90;;;;;;1904882;74;21175;-82
2022/01/24 07:54:15;;;;;;;22.62;14.38;;;0.00;99.90;;;;;;1926977;74;21086;-84
2022/01/24 07:57:07;;;;;;;20.72;13.70;;;0.00;99.90;;;;;;1848161;77;21085;-80
2022/01/24 07:59:58;;;;;;;20.27;14.00;;;0.00;99.90;;;;;;1920456;74;21104;-77
2022/01/24 08:02:50;;;;;;;24.18;14.93;;;0.00;99.90;;;;;;1917890;74;21107;-78
2022/01/24 08:05:42;;;;;;;21.95;14.63;;;0.10;99.90;;;;;;1908428;74;21048;-78
2022/01/24 08:08:34;;;;;;;20.25;13.65;;;0.10;99.90;;;;;;1904883;74;21220;-78
2022/01/24 08:11:27;;;;;;;23.52;15.58;;;0.10;99.90;;;;;;1925069;74;21055;-84
2022/01/24 08:14:18;;;;;;;22.07;14.58;;;0.30;99.90;;;;;;1919992;74;21094;-82
2022/01/24 08:17:09;;;;;;;21.20;14.78;;;0.30;99.90;;;;;;1906801;74;21111;-82
2022/01/24 08:20:01;;;;;;;21.65;14.78;;;0.30;99.90;;;;;;1905003;75;21171;-84
2022/01/24 08:22:52;;;;;;;22.65;14.73;;;0.30;99.90;;;;;;1905197;75;21077;-82
2022/01/24 08:25:43;;;;;;;23.20;14.13;;;0.30;99.90;;;;;;1905043;75;21063;-83
2022/01/24 08:28:35;;;;;;;21.40;14.85;;;0.30;99.90;;;;;;1858190;76;21071;-83
2022/01/24 08:31:28;;;;;;;26.62;15.58;;;0.30;99.90;;;;;;1910046;74;21211;-82
2022/01/24 08:34:20;;;;;;;22.50;14.95;;;0.40;99.90;;;;;;1905470;75;21173;-82
2022/01/24 08:37:11;;;;;;;26.87;16.37;;;0.30;99.90;;;;;;1922200;74;21059;-84
2022/01/24 08:40:04;;;;;;;24.25;15.63;;;0.40;99.90;;;;;;1915989;74;21110;-82
2022/01/24 08:43:02;;;;;;;24.15;15.50;;;0.40;99.90;;;;;;1917652;74;21070;-82
2022/01/24 08:45:58;;;;;;;24.43;15.95;;;0.50;99.90;;;;;;1905039;75;21094;-84
2022/01/24 08:48:46;;;;;;;25.45;15.18;;;0.50;99.90;;;;;;1905100;75;21201;-82
2022/01/24 08:51:41;;;;;;;22.42;15.43;;;0.50;99.90;;;;;;1927745;74;21163;-82
2022/01/24 08:54:37;;;;;;;24.70;16.07;;;0.50;99.90;;;;;;1905154;75;21114;-82
2022/01/24 08:57:29;;;;;;;22.27;15.48;;;0.50;99.90;;;;;;1904823;75;21143;-82
2022/01/24 09:00:20;;;;;;;23.47;14.93;;;0.50;99.90;;;;;;1904389;75;21190;-83
2022/01/24 09:03:14;;;;;;;24.60;15.68;;;0.60;99.90;;;;;;1904428;75;21122;-82
2022/01/24 09:06:06;;;;;;;21.23;15.38;;;0.70;99.90;;;;;;1904414;75;21177;-82
2022/01/24 09:09:02;;;;;;;21.27;15.78;;;0.80;99.90;;;;;;1904608;75;21087;-82
2022/01/24 09:11:50;;;;;;;24.63;15.45;;;0.80;99.90;;;;;;1920469;74;21166;-82
2022/01/24 09:14:44;;;;;;;23.73;14.78;;;0.90;99.90;;;;;;1904697;74;21126;-82
2022/01/24 09:17:35;;;;;;;24.15;14.05;;;1.00;99.90;;;;;;1904443;75;21052;-84
2022/01/24 09:20:26;;;;;;;19.85;14.93;;;1.00;99.90;;;;;;1904390;75;21061;-82
2022/01/24 09:23:19;;;;;;;24.07;14.80;;;1.10;99.90;;;;;;1904171;75;21043;-82
2022/01/24 09:26:11;;;;;;;22.85;15.00;;;1.20;99.90;;;;;;1904389;75;21487;-82
2022/01/24 09:29:03;;;;;;;22.50;14.68;;;1.20;99.90;;;;;;1904386;75;21554;-82
2022/01/24 09:31:54;;;;;;;22.13;14.80;;;1.30;99.90;;;;;;1907163;74;21109;-82
2022/01/24 09:34:46;;;;;;;24.30;14.80;;;1.50;99.90;;;;;;1918478;74;21122;-82
2022/01/24 09:37:38;;;;;;;24.75;14.85;;;1.50;99.90;;;;;;1904347;75;21063;-83
2022/01/24 09:40:29;;;;;;;20.32;14.55;;;1.50;99.90;;;;;;1913864;74;21078;-82
2022/01/24 09:43:21;;;;;;;19.48;14.50;;;1.60;99.90;;;;;;1916023;74;21100;-82
2022/01/24 09:46:13;;;;;;;22.40;14.28;;;1.70;99.90;;;;;;1916831;74;21575;-82
2022/01/24 09:49:06;;;;;;;22.07;14.98;;;1.70;99.90;;;;;;1905350;75;21076;-82
2022/01/24 09:51:57;;;;;;;22.20;16.15;;;1.80;99.90;;;;;;1907964;75;21064;-83
2022/01/24 09:54:49;;;;;;;23.02;15.78;;;1.90;99.90;;;;;;1908745;75;21163;-82
2022/01/24 09:57:42;;;;;;;24.02;17.05;;;1.80;99.90;;;;;;1908719;75;21077;-82
2022/01/24 10:00:34;;;;;;;22.52;15.72;;;1.90;99.90;;;;;;1907652;74;21103;-81
2022/01/24 10:03:26;;;;;;;21.33;15.08;;;2.00;99.90;;;;;;1907210;75;21054;-82
2022/01/24 10:06:19;;;;;;;24.52;16.07;;;2.00;99.90;;;;;;1906771;74;21073;-82
2022/01/24 10:09:11;;;;;;;25.12;16.75;;;2.20;99.90;;;;;;1909918;74;21063;-81
2022/01/24 10:12:32;;;;;;;22.55;15.10;;;2.20;99.90;;;;;;1908252;75;21183;-82
2022/01/24 10:18:30;;;;;;;23.67;15.10;;;2.40;99.90;;;;;;1910162;75;21079;-83
2022/01/24 10:21:25;;;;;;;23.15;14.95;;;2.50;99.90;;;;;;1927460;74;21047;-82
2022/01/24 10:24:31;;;;;;;21.85;15.20;;;2.60;99.90;;;;;;1924526;74;21055;-83
2022/01/24 10:27:25;;;;;;;19.60;14.83;;;2.70;99.90;;;;;;1915695;74;21087;-83
2022/01/24 10:30:17;;;;;;;23.50;15.40;;;2.70;99.90;;;;;;1935717;74;21080;-83
2022/01/24 10:33:11;;;;;;;21.95;14.43;;;2.90;99.90;;;;;;1911967;75;21128;-82
2022/01/24 10:36:03;;;;;;;24.40;14.60;;;3.00;99.90;;;;;;1928461;74;21039;-82
2022/01/24 10:38:58;;;;;;;20.52;14.30;;;3.10;99.90;;;;;;1924298;74;21084;-81
2022/01/24 10:41:59;;;;;;;29.00;14.68;;;3.10;99.90;;;;;;1916271;73;21095;-82
2022/01/24 10:44:49;;;;;;;21.52;14.55;;;3.20;99.90;;;;;;1913119;75;21064;-82
2022/01/24 10:47:45;;;;;;;23.02;14.80;;;3.30;99.90;;;;;;1913293;75;21107;-82
2022/01/24 10:50:37;;;;;;;24.18;15.30;;;3.40;99.90;;;;;;1925220;74;21141;-82
2022/01/24 10:53:31;;;;;;;23.65;15.53;;;3.40;99.90;;;;;;1921204;73;21134;-81
2022/01/24 10:56:35;;;;;;;22.17;15.58;;;3.50;99.90;;;;;;1916271;73;21063;-82
2022/01/24 10:59:27;;;;;;;19.35;14.73;;;3.60;99.90;;;;;;1910302;75;21185;-83
2022/01/24 11:02:19;;;;;;;23.47;14.05;;;3.70;99.90;;;;;;1910295;74;21129;-82
2022/01/24 11:05:17;;;;;;;20.37;14.45;;;3.70;99.90;;;;;;1925135;74;21205;-82
2022/01/24 11:08:25;;;;;;;21.17;14.50;;;3.80;99.90;;;;;;1921652;74;21058;-82
2022/01/24 11:11:20;;;;;;;22.25;13.93;;;3.90;99.90;;;;;;1907146;73;21128;-82
2022/01/24 11:14:15;;;;;;;21.77;13.32;;;3.90;99.90;;;;;;1849103;76;21126;-82
2022/01/24 11:17:06;;;;;;;20.43;13.35;;;4.00;99.90;;;;;;1923915;74;21103;-82
2022/01/24 11:20:02;;;;;;;19.27;13.45;;;4.00;99.90;;;;;;1902140;75;21062;-82
2022/01/24 11:22:59;;;;;;;21.80;14.68;;;4.10;99.90;;;;;;1904620;75;21145;-82
2022/01/24 11:25:49;;;;;;;23.85;15.65;;;4.20;99.90;;;;;;1915022;74;21082;-82
2022/01/24 11:28:40;;;;;;;20.80;14.00;;;4.30;99.90;;;;;;1921325;73;21047;-82
2022/01/24 11:31:35;;;;;;;21.40;14.73;;;4.50;99.90;;;;;;1920226;73;21067;-82
2022/01/24 11:34:32;;;;;;;22.13;14.35;;;4.50;99.90;;;;;;1904297;75;21110;-82
2022/01/24 11:37:42;;;;;;;19.50;13.98;;;4.60;99.90;;;;;;1905017;74;21107;-82
2022/01/24 11:40:48;;;;;;;22.87;15.00;;;4.70;99.90;;;;;;1904214;75;21111;-82
2022/01/24 11:43:44;;;;;;;20.48;13.95;;;4.70;99.90;;;;;;1926817;74;21055;-82
2022/01/24 11:46:42;;;;;;;23.98;15.63;;;4.70;99.90;;;;;;1846432;77;21071;-82
2022/01/24 11:49:35;;;;;;;21.62;15.10;;;4.80;99.90;;;;;;1904233;75;21095;-82
2022/01/24 11:52:36;;;;;;;23.10;14.58;;;4.90;99.90;;;;;;1931792;74;21648;-78
2022/01/24 11:55:37;;;;;;;23.60;15.43;;;4.90;99.90;;;;;;1904282;75;21254;-78
2022/01/24 11:58:32;;;;;;;19.35;14.13;;;5.00;99.90;;;;;;1904186;75;21040;-77
2022/01/24 12:04:20;;;;;;;21.50;13.20;;;5.10;99.90;;;;;;1949601;72;22146;-78
2022/01/24 12:07:23;;;;;;;17.67;12.88;;;5.20;99.90;;;;;;1905848;75;21510;-79
2022/01/24 12:10:43;;;;;;;18.27;13.25;;;5.20;99.90;;;;;;1899430;75;21059;-79
2022/01/24 12:13:41;;;;;;;17.57;12.98;;;5.30;99.90;;;;;;1904317;75;21055;-77
2022/01/24 12:16:37;;;;;;;15.32;11.90;;;5.30;99.90;;;;;;1901084;75;21128;-78
2022/01/24 12:19:31;;;;;;;20.80;13.15;;;5.40;99.90;;;;;;1896867;75;21097;-77
2022/01/24 12:22:38;;;;;;;20.35;13.62;;;5.40;99.90;;;;;;1887681;75;21061;-78
2022/01/24 12:25:53;;;;;;;18.52;13.25;;;5.50;99.90;;;;;;1884599;76;21569;-78
2022/01/24 12:28:52;;;;;;;19.12;13.55;;;5.50;99.90;;;;;;1906483;75;21082;-79
2022/01/24 12:31:47;;;;;;;21.60;14.13;;;5.60;99.90;;;;;;1906227;75;21216;-77
2022/01/24 12:34:42;;;;;;;18.32;13.15;;;5.70;99.90;;;;;;1905375;75;21043;-77
2022/01/24 12:40:17;;;;;;;19.45;12.98;;;5.80;99.90;;;;;;1948145;72;22268;-78
2022/01/24 12:43:19;;;;;;;20.60;14.07;;;5.90;99.90;;;;;;1906716;75;21098;-78
2022/01/24 12:46:20;;;;;;;21.45;14.58;;;5.90;99.90;;;;;;1884591;75;21181;-78
2022/01/24 12:49:13;;;;;;;23.60;15.72;;;6.00;99.90;;;;;;1901549;75;21160;-78
2022/01/24 12:52:06;;;;;;;18.70;13.40;;;6.00;99.90;;;;;;1884326;75;21052;-80
2022/01/24 12:55:01;;;;;;;18.37;13.38;;;6.00;99.90;;;;;;1884523;75;21583;-78
2022/01/24 12:57:52;;;;;;;21.02;13.58;;;6.20;99.90;;;;;;1906306;75;21106;-79
2022/01/24 13:00:47;;;;;;;22.13;15.05;;;6.20;99.90;;;;;;1904694;75;21216;-78
2022/01/24 13:03:55;;;;;;;21.40;15.60;;;6.20;99.90;;;;;;1900312;75;21099;-78
2022/01/24 13:06:47;;;;;;;21.27;14.57;;;6.30;99.90;;;;;;1903666;75;21106;-78
2022/01/24 13:09:38;;;;;;;23.05;15.10;;;6.30;99.90;;;;;;1884533;75;21088;-78
2022/01/24 13:12:30;;;;;;;25.32;14.75;;;6.40;99.90;;;;;;1888480;75;21087;-77
2022/01/24 13:20:22;;;;;;;19.65;14.75;;;6.50;99.90;;;;;;1917473;75;21067;-78
2022/01/24 13:21:36;;;;;;;16.05;10.23;;;6.50;99.90;;;;;;1901474;75;21163;-79
2022/01/24 13:24:28;;;;;;;23.32;15.20;;;6.60;99.90;;;;;;1896608;75;21114;-78
2022/01/24 13:27:19;;;;;;;23.05;14.68;;;6.70;99.90;;;;;;1888408;75;21124;-78
2022/01/24 13:30:14;;;;;;;20.35;14.25;;;6.70;99.90;;;;;;1906302;75;21511;-78
2022/01/24 13:33:07;;;;;;;21.68;15.90;;;6.80;99.90;;;;;;1884474;75;21060;-78
2022/01/24 13:36:00;;;;;;;19.32;14.53;;;6.90;99.90;;;;;;1898681;75;21090;-78
2022/01/24 13:38:52;;;;;;;22.22;15.03;;;6.90;99.90;;;;;;1884889;75;21112;-78
2022/01/24 13:41:49;;;;;;;19.32;14.03;;;6.90;99.90;;;;;;1876073;75;21121;-78
2022/01/24 13:44:39;;;;;;;22.95;14.80;;;7.00;99.90;;;;;;1883836;75;21072;-78
2022/01/24 13:47:31;;;;;;;19.57;14.65;;;7.10;99.90;;;;;;1866523;76;21589;-77
2022/01/24 13:50:22;;;;;;;18.25;13.53;;;7.00;99.90;;;;;;1895521;75;21117;-77
2022/01/24 13:53:15;;;;;;;20.27;14.53;;;7.10;99.90;;;;;;1882619;75;21079;-78
2022/01/24 13:56:29;;;;;;;17.32;13.95;;;7.20;99.90;;;;;;1894673;75;21207;-78
2022/01/24 13:59:23;;;;;;;20.30;14.58;;;7.20;99.90;;;;;;1882852;75;21099;-77
2022/01/24 14:02:19;;;;;;;22.07;14.80;;;7.20;99.90;;;;;;1898013;75;21066;-77
2022/01/24 14:05:10;;;;;;;19.42;14.15;;;7.20;99.90;;;;;;1886144;75;21117;-78
2022/01/24 14:08:15;;;;;;;19.40;13.72;;;7.20;99.90;;;;;;1894825;75;21059;-78
2022/01/24 14:11:14;;;;;;;16.67;13.43;;;7.30;99.90;;;;;;1904194;75;21168;-79
2022/01/24 14:14:11;;;;;;;17.62;12.80;;;7.30;99.90;;;;;;1894891;75;21166;-79
2022/01/24 14:17:09;;;;;;;18.80;13.08;;;7.40;99.90;;;;;;1882388;75;21107;-79
2022/01/24 14:20:02;;;;;;;16.93;12.37;;;7.40;99.90;;;;;;1901616;75;21099;-79
2022/01/24 14:22:55;;;;;;;19.35;12.78;;;7.50;99.90;;;;;;1886403;75;21126;-78
2022/01/24 14:25:47;;;;;;;18.90;13.08;;;7.50;99.90;;;;;;1894834;75;21073;-78
2022/01/24 14:28:38;;;;;;;17.77;13.03;;;7.50;99.90;;;;;;1882320;75;21040;-78
2022/01/24 14:31:29;;;;;;;20.80;13.45;;;7.50;99.90;;;;;;1916918;75;21051;-77
2022/01/24 14:34:21;;;;;;;18.85;13.18;;;7.50;99.90;;;;;;1887654;75;21098;-79
2022/01/24 14:37:13;;;;;;;19.82;12.35;;;7.60;99.90;;;;;;1894739;75;21087;-78
2022/01/24 14:40:06;;;;;;;20.48;12.63;;;7.60;99.90;;;;;;1878577;75;21177;-79
2022/01/24 14:44:53;;;;;;;20.60;13.13;;;7.60;99.90;;;;;;1871791;77;21130;-78
2022/01/24 14:45:53;;;;;;;18.17;12.65;;;7.60;99.90;;;;;;1887603;75;21102;-79
2022/01/24 14:48:53;;;;;;;15.93;12.60;;;7.60;99.90;;;;;;1883181;75;21170;-77
2022/01/24 14:51:46;;;;;;;17.48;13.20;;;7.70;99.90;;;;;;1894797;75;21083;-78
2022/01/24 14:54:39;;;;;;;17.77;12.65;;;7.70;99.90;;;;;;1882298;75;21179;-77
2022/01/24 14:57:32;;;;;;;18.35;12.07;;;7.70;99.90;;;;;;1895821;75;21126;-77
2022/01/24 15:00:23;;;;;;;17.75;12.98;;;7.80;99.90;;;;;;1899653;75;21118;-78
2022/01/24 15:03:15;;;;;;;17.87;12.63;;;7.70;99.90;;;;;;1883855;75;21140;-78
2022/01/24 15:06:07;;;;;;;15.00;11.93;;;7.70;99.90;;;;;;1906135;75;21051;-78
2022/01/24 15:09:00;;;;;;;20.43;12.03;;;7.70;99.90;;;;;;1872023;77;21192;-77
2022/01/24 15:11:54;;;;;;;17.60;12.20;;;7.70;99.90;;;;;;1883818;76;21062;-78
2022/01/24 15:14:47;;;;;;;15.50;12.18;;;7.80;99.90;;;;;;1884063;75;21056;-78
2022/01/24 15:23:54;;;;;;;17.27;11.18;;;7.70;99.90;;;;;;1909765;75;21184;-78
2022/01/24 15:24:25;;;;;;;16.95;11.75;;;7.60;99.90;;;;;;1914095;75;21059;-78
2022/01/24 15:27:07;;;;;;;14.28;11.78;;;7.50;99.90;;;;;;1883514;75;21064;-78
2022/01/24 15:29:58;;;;;;;15.53;11.05;;;7.40;99.90;;;;;;1892691;75;21207;-78
2022/01/24 15:32:52;;;;;;;14.90;11.20;;;7.30;99.90;;;;;;1884008;76;21276;-78
2022/01/24 15:35:45;;;;;;;18.12;11.05;;;7.20;99.90;;;;;;1905927;75;21184;-78
2022/01/24 15:41:15;;;;;;;18.30;12.73;;;7.20;99.90;;;;;;1954205;72;22196;-78
2022/01/24 15:44:31;;;;;;;17.52;12.07;;;7.20;99.90;;;;;;1899124;75;21196;-79
2022/01/24 15:47:17;;;;;;;16.73;11.05;;;7.20;99.90;;;;;;1895556;75;21156;-80
2022/01/24 15:49:58;;;;;;;17.10;12.75;;;7.10;99.90;;;;;;1894941;75;21204;-79
2022/01/24 15:52:53;;;;;;;19.25;13.35;;;7.10;99.90;;;;;;1894915;75;21219;-80
2022/01/24 15:56:12;;;;;;;19.90;11.60;;;7.00;99.90;;;;;;1903185;75;21048;-78
2022/01/24 15:58:44;;;;;;;16.32;11.93;;;6.90;99.90;;;;;;1903328;75;21556;-78
2022/01/24 16:01:36;;;;;;;17.73;11.63;;;6.90;99.90;;;;;;1906501;75;21098;-80
2022/01/24 16:04:28;;;;;;;16.30;11.95;;;6.80;99.90;;;;;;1906447;75;21196;-78
2022/01/24 16:07:20;;;;;;;18.23;12.15;;;6.80;99.90;;;;;;1905730;75;21582;-78
2022/01/24 16:10:14;;;;;;;19.20;12.45;;;6.70;99.90;;;;;;1901844;75;21110;-77
2022/01/24 16:13:07;;;;;;;19.65;12.00;;;6.70;99.90;;;;;;1895539;75;21570;-79
2022/01/24 16:16:01;;;;;;;16.55;11.60;;;6.60;99.90;;;;;;1895269;75;21106;-78
2022/01/24 16:18:53;;;;;;;16.97;11.15;;;6.60;99.90;;;;;;1894876;75;21051;-78
2022/01/24 16:21:58;;;;;;;19.00;11.80;;;6.50;99.90;;;;;;1898105;75;21051;-78
2022/01/24 16:27:50;;;;;;;17.50;10.95;;;6.40;99.90;;;;;;1903145;75;21168;-78
2022/01/24 16:30:46;;;;;;;16.05;11.48;;;6.40;99.90;;;;;;1915479;75;21095;-83
2022/01/24 16:33:39;;;;;;;14.28;11.12;;;6.30;99.90;;;;;;1895163;75;21145;-83
2022/01/24 16:36:31;;;;;;;18.80;11.70;;;6.20;99.90;;;;;;1917182;75;21058;-82
2022/01/24 16:39:24;;;;;;;18.02;11.97;;;6.20;99.90;;;;;;1897086;75;21197;-82
2022/01/24 16:42:16;;;;;;;18.77;11.97;;;6.10;99.90;;;;;;1906305;75;21174;-83
2022/01/24 16:47:01;;;;;;;16.67;12.25;;;6.10;99.90;;;;;;1890444;75;21145;-83
2022/01/24 16:48:07;;;;;;;21.95;13.40;;;6.00;99.90;;;;;;1895165;75;21152;-83
2022/01/24 16:51:01;;;;;;;18.82;12.93;;;6.00;99.90;;;;;;1897411;75;21160;-83
2022/01/24 16:53:58;;;;;;;20.02;13.20;;;6.00;99.90;;;;;;1899232;75;21147;-83
2022/01/24 16:56:48;;;;;;;21.80;13.08;;;5.90;99.90;;;;;;1894616;75;21106;-83
2022/01/24 16:59:40;;;;;;;17.25;11.83;;;5.90;99.90;;;;;;1894354;75;21063;-83
2022/01/24 17:02:32;;;;;;;19.15;12.03;;;5.90;99.90;;;;;;1894661;75;21070;-83
2022/01/24 17:05:24;;;;;;;16.55;12.00;;;5.90;99.90;;;;;;1883506;76;21141;-83